Time;durP1;ratioP1;P1;durP2;ratioP2;P2;SDS_P1;SDS_P2;PMS_P1;PMS_P2;Temp;Humidity;BMP_temperature;BMP_pressure;BME280_temperature;BME280_humidity;BME280_pressure;Samples;Min_cycle;Max_cycle;Signal;HPM_P1;HPM_P2
2021/04/24 00:01:58;;;;;;;14.60;9.20;;;5.60;99.90;;;;;;5014328;28;20227;-63
2021/04/24 00:04:25;;;;;;;19.53;8.13;;;5.70;99.90;;;;;;5014164;28;20204;-63
2021/04/24 00:06:50;;;;;;;15.30;8.40;;;5.80;99.90;;;;;;5014009;28;20196;-63
2021/04/24 00:09:16;;;;;;;16.03;8.60;;;5.90;99.90;;;;;;5014274;28;20184;-63
2021/04/24 00:11:41;;;;;;;14.87;7.60;;;6.00;99.90;;;;;;5013798;28;20661;-63
2021/04/24 00:14:07;;;;;;;19.37;8.63;;;6.10;99.90;;;;;;5014437;28;20517;-63
2021/04/24 00:16:33;;;;;;;19.00;8.37;;;6.00;99.90;;;;;;5013738;28;20285;-63
2021/04/24 00:18:59;;;;;;;19.03;8.77;;;6.00;99.90;;;;;;5014292;28;20168;-63
2021/04/24 00:21:24;;;;;;;13.97;8.40;;;6.00;99.90;;;;;;5013585;28;20174;-63
2021/04/24 00:23:50;;;;;;;13.03;7.67;;;5.90;99.90;;;;;;5013996;28;20215;-63
2021/04/24 00:26:15;;;;;;;19.57;8.40;;;5.90;99.90;;;;;;5013733;28;20616;-62
2021/04/24 00:28:41;;;;;;;18.93;8.90;;;5.70;99.90;;;;;;5013866;28;20215;-63
2021/04/24 00:31:07;;;;;;;13.20;8.07;;;5.70;99.90;;;;;;5013908;28;20180;-63
2021/04/24 00:33:33;;;;;;;16.47;8.93;;;5.70;99.90;;;;;;5013668;28;20271;-63
2021/04/24 00:35:59;;;;;;;15.27;9.10;;;5.60;99.90;;;;;;5013548;28;20180;-63
2021/04/24 00:38:25;;;;;;;11.87;7.60;;;5.60;99.90;;;;;;5013657;28;20210;-63
2021/04/24 00:40:51;;;;;;;14.80;7.80;;;5.60;99.90;;;;;;5013352;28;20220;-63
2021/04/24 00:43:17;;;;;;;14.43;7.03;;;5.50;99.90;;;;;;5013567;28;20255;-63
2021/04/24 00:45:43;;;;;;;13.07;7.43;;;5.50;99.90;;;;;;5013499;28;20176;-63
2021/04/24 00:48:10;;;;;;;11.83;6.90;;;5.50;99.90;;;;;;5013775;28;20195;-63
2021/04/24 00:50:38;;;;;;;13.97;7.90;;;5.60;99.90;;;;;;5011801;28;20559;-62
2021/04/24 00:53:05;;;;;;;14.63;7.87;;;5.50;99.90;;;;;;5013615;28;20208;-62
2021/04/24 00:55:31;;;;;;;15.77;7.10;;;5.50;99.90;;;;;;5013448;28;20560;-63
2021/04/24 00:57:58;;;;;;;15.20;8.10;;;5.50;99.90;;;;;;5013530;28;20709;-62
2021/04/24 01:00:25;;;;;;;13.10;7.17;;;5.50;99.90;;;;;;5012931;28;20184;-63
2021/04/24 01:02:55;;;;;;;13.17;6.70;;;5.50;99.90;;;;;;5013036;28;20187;-62
2021/04/24 01:05:28;;;;;;;11.13;6.43;;;5.40;99.90;;;;;;5012322;28;20331;-63
2021/04/24 01:07:54;;;;;;;14.07;6.73;;;5.40;99.90;;;;;;5013080;28;20207;-63
2021/04/24 01:10:20;;;;;;;11.03;6.73;;;5.40;99.90;;;;;;5012936;28;20585;-63
2021/04/24 01:12:47;;;;;;;11.17;6.00;;;5.30;99.90;;;;;;5013025;28;20176;-63
2021/04/24 01:15:16;;;;;;;10.50;6.93;;;5.30;99.90;;;;;;5013243;28;20210;-63
2021/04/24 01:17:42;;;;;;;13.23;6.07;;;5.30;99.90;;;;;;5012589;28;20267;-63
2021/04/24 01:20:09;;;;;;;12.03;6.13;;;5.30;99.90;;;;;;5012905;28;20180;-63
2021/04/24 01:22:35;;;;;;;9.77;6.20;;;5.20;99.90;;;;;;5012982;28;20176;-63
2021/04/24 01:25:06;;;;;;;10.07;5.40;;;5.20;99.90;;;;;;5012608;28;20204;-63
2021/04/24 01:27:32;;;;;;;10.93;5.43;;;5.20;99.90;;;;;;5012844;28;20290;-63
2021/04/24 01:29:57;;;;;;;10.17;5.97;;;5.10;99.90;;;;;;5012300;28;20279;-62
2021/04/24 01:32:23;;;;;;;12.27;5.67;;;5.10;99.90;;;;;;5012512;28;20184;-63
2021/04/24 01:34:49;;;;;;;9.87;6.17;;;5.10;99.90;;;;;;5012844;28;20172;-61
2021/04/24 01:37:14;;;;;;;7.73;5.47;;;5.00;99.90;;;;;;5012514;28;20225;-63
2021/04/24 01:39:40;;;;;;;9.40;6.07;;;5.00;99.90;;;;;;5012546;28;20278;-63
2021/04/24 01:42:06;;;;;;;11.23;5.57;;;5.00;99.90;;;;;;5012077;28;20191;-62
2021/04/24 01:44:32;;;;;;;12.90;5.30;;;4.90;99.90;;;;;;5012532;28;20203;-63
2021/04/24 01:46:57;;;;;;;9.13;4.93;;;4.90;99.90;;;;;;5012365;28;20685;-63
2021/04/24 01:49:23;;;;;;;8.03;5.47;;;4.90;99.90;;;;;;5012428;28;20318;-63
2021/04/24 01:51:49;;;;;;;6.47;4.67;;;5.00;99.90;;;;;;5011886;28;20187;-63
2021/04/24 01:54:15;;;;;;;11.03;5.07;;;4.90;99.90;;;;;;5012486;28;20207;-62
2021/04/24 01:56:47;;;;;;;13.43;4.97;;;5.00;99.90;;;;;;5011787;28;20188;-62
2021/04/24 01:59:14;;;;;;;10.23;6.00;;;4.90;99.90;;;;;;5012678;28;20254;-62
2021/04/24 02:01:40;;;;;;;12.00;6.27;;;4.90;99.90;;;;;;5011813;28;20187;-63
2021/04/24 02:04:06;;;;;;;9.10;5.47;;;4.80;99.90;;;;;;5012591;28;20685;-62
2021/04/24 02:06:33;;;;;;;6.97;5.13;;;4.80;99.90;;;;;;5011907;28;20247;-63
2021/04/24 02:08:59;;;;;;;9.30;5.37;;;;;;;;;;5016384;28;20653;-68
2021/04/24 02:11:24;;;;;;;11.00;5.90;;;4.80;99.90;;;;;;5016841;28;20179;-66
2021/04/24 02:13:51;;;;;;;12.17;5.73;;;4.70;99.90;;;;;;5017215;28;20654;-68
2021/04/24 02:16:17;;;;;;;12.73;5.50;;;4.60;99.90;;;;;;5014715;28;20227;-66
2021/04/24 02:18:43;;;;;;;10.80;5.53;;;4.50;99.90;;;;;;5016546;28;20231;-65
2021/04/24 02:21:09;;;;;;;8.80;5.53;;;4.40;99.90;;;;;;5016058;28;20187;-67
2021/04/24 02:23:37;;;;;;;9.53;5.57;;;4.40;99.90;;;;;;5015566;28;20220;-68
2021/04/24 02:26:05;;;;;;;8.73;5.73;;;4.30;99.90;;;;;;5015404;28;20226;-68
2021/04/24 02:28:30;;;;;;;12.80;5.07;;;4.30;99.90;;;;;;5015542;28;20211;-67
2021/04/24 02:30:57;;;;;;;8.43;5.20;;;4.30;99.90;;;;;;5016860;28;20246;-67
2021/04/24 02:33:23;;;;;;;10.00;5.80;;;4.20;99.90;;;;;;5016321;28;20176;-68
2021/04/24 02:35:50;;;;;;;7.97;5.40;;;4.20;99.90;;;;;;5015543;28;20238;-66
2021/04/24 02:38:19;;;;;;;9.07;5.80;;;4.20;99.90;;;;;;5016372;28;20203;-66
2021/04/24 02:40:46;;;;;;;9.40;6.10;;;4.20;99.90;;;;;;5016316;28;20646;-67
2021/04/24 02:43:13;;;;;;;10.07;5.83;;;4.10;99.90;;;;;;5015931;28;20258;-65
2021/04/24 02:45:38;;;;;;;10.63;5.77;;;4.10;99.90;;;;;;5016523;28;20180;-66
2021/04/24 02:48:05;;;;;;;7.57;5.00;;;4.10;99.90;;;;;;5016206;28;20686;-66
2021/04/24 02:50:30;;;;;;;10.90;5.13;;;4.10;99.90;;;;;;5015448;28;20186;-69
2021/04/24 02:52:56;;;;;;;9.47;5.00;;;4.00;99.90;;;;;;5015484;28;20239;-67
2021/04/24 02:55:22;;;;;;;8.90;5.47;;;4.00;99.90;;;;;;5014993;28;20215;-68
2021/04/24 02:57:48;;;;;;;11.10;5.20;;;4.00;99.90;;;;;;5016337;28;20689;-66
2021/04/24 03:00:16;;;;;;;10.37;5.30;;;4.00;99.90;;;;;;5015938;28;20211;-68
2021/04/24 03:02:42;;;;;;;11.63;6.20;;;4.00;99.90;;;;;;5017027;28;20172;-68
2021/04/24 03:05:11;;;;;;;10.53;5.67;;;4.00;99.90;;;;;;5016437;28;20210;-66
2021/04/24 03:07:37;;;;;;;8.53;5.33;;;4.00;99.90;;;;;;5014671;28;20204;-65
2021/04/24 03:10:04;;;;;;;9.73;5.63;;;4.10;99.90;;;;;;5015921;28;20192;-66
2021/04/24 03:12:29;;;;;;;10.27;5.03;;;4.00;99.90;;;;;;5016346;28;20262;-69
2021/04/24 03:14:55;;;;;;;9.90;5.10;;;4.00;99.90;;;;;;5015852;28;20224;-68
2021/04/24 03:17:21;;;;;;;8.83;5.83;;;4.00;99.90;;;;;;5016139;28;20202;-68
2021/04/24 03:19:46;;;;;;;10.93;5.43;;;4.00;99.90;;;;;;5015314;28;20184;-67
2021/04/24 03:22:12;;;;;;;14.07;5.33;;;3.90;99.90;;;;;;5015823;28;20204;-66
2021/04/24 03:24:38;;;;;;;11.20;5.27;;;3.80;99.90;;;;;;5016145;28;20239;-69
2021/04/24 03:27:04;;;;;;;8.47;4.90;;;4.00;99.90;;;;;;5023825;22;20216;-69
2021/04/24 03:29:29;;;;;;;11.23;5.43;;;3.70;99.90;;;;;;5017107;28;20715;-66
2021/04/24 03:31:55;;;;;;;10.73;5.17;;;3.80;99.90;;;;;;5028892;28;20210;-64
2021/04/24 03:34:21;;;;;;;8.80;5.73;;;3.70;99.90;;;;;;5037589;28;20303;-68
2021/04/24 03:36:47;;;;;;;9.47;5.60;;;3.70;99.90;;;;;;5030692;28;20180;-69
2021/04/24 03:39:12;;;;;;;8.13;5.00;;;3.70;99.90;;;;;;5018184;28;20234;-67
2021/04/24 03:41:38;;;;;;;11.97;5.80;;;3.70;99.90;;;;;;5018196;28;20180;-69
2021/04/24 03:44:04;;;;;;;11.67;6.30;;;3.70;99.90;;;;;;5017385;28;20247;-68
2021/04/24 03:46:29;;;;;;;9.97;5.63;;;3.60;99.90;;;;;;5018069;28;20600;-67
2021/04/24 03:48:55;;;;;;;11.97;5.43;;;3.60;99.90;;;;;;5018394;28;20573;-68
2021/04/24 03:51:21;;;;;;;12.03;4.83;;;3.60;99.90;;;;;;5018563;28;20180;-67
2021/04/24 03:53:46;;;;;;;12.03;4.97;;;3.60;99.90;;;;;;5018128;28;20196;-67
2021/04/24 03:56:12;;;;;;;8.50;5.70;;;3.60;99.90;;;;;;5015834;28;20184;-64
2021/04/24 03:58:38;;;;;;;12.47;5.70;;;3.60;99.90;;;;;;5014637;28;20676;-64
2021/04/24 04:01:03;;;;;;;15.60;5.53;;;3.70;99.90;;;;;;5014029;28;20198;-65
2021/04/24 04:03:29;;;;;;;11.27;6.47;;;3.70;99.90;;;;;;5013187;28;20579;-64
2021/04/24 04:05:54;;;;;;;11.60;5.57;;;3.60;99.90;;;;;;5014045;28;20547;-63
2021/04/24 04:08:20;;;;;;;11.63;6.37;;;3.60;99.90;;;;;;5014299;28;20203;-63
2021/04/24 04:10:46;;;;;;;19.27;6.43;;;3.50;99.90;;;;;;5014010;28;20295;-63
2021/04/24 04:13:13;;;;;;;12.20;6.50;;;3.50;99.90;;;;;;5014314;28;20191;-63
2021/04/24 04:15:40;;;;;;;15.37;6.47;;;3.40;99.90;;;;;;5014212;28;20180;-62
2021/04/24 04:18:14;;;;;;;11.37;5.60;;;3.30;99.90;;;;;;5014107;28;20677;-63
2021/04/24 04:20:51;;;;;;;10.83;6.00;;;3.20;99.90;;;;;;5013852;28;20225;-63
2021/04/24 04:23:17;;;;;;;12.17;5.80;;;3.20;99.90;;;;;;5013699;28;20192;-62
2021/04/24 04:25:44;;;;;;;13.10;5.57;;;3.20;99.90;;;;;;5014176;28;20734;-64
2021/04/24 04:28:10;;;;;;;13.20;5.53;;;3.30;99.90;;;;;;5013852;28;20691;-64
2021/04/24 04:30:37;;;;;;;13.27;5.80;;;3.30;99.90;;;;;;5013561;28;20176;-64
2021/04/24 04:33:04;;;;;;;10.57;5.43;;;3.40;99.90;;;;;;5014045;28;20207;-63
2021/04/24 04:35:30;;;;;;;10.17;6.13;;;3.40;99.90;;;;;;5013635;28;20191;-63
2021/04/24 04:37:56;;;;;;;11.63;5.90;;;3.50;99.90;;;;;;5013649;28;20723;-64
2021/04/24 04:40:22;;;;;;;17.53;5.23;;;3.50;99.90;;;;;;5013037;28;20188;-64
2021/04/24 04:42:49;;;;;;;15.40;5.93;;;3.60;99.90;;;;;;5013788;28;20173;-64
2021/04/24 04:45:16;;;;;;;6.67;4.73;;;3.70;99.90;;;;;;5013746;28;20204;-63
2021/04/24 04:47:42;;;;;;;5.77;4.70;;;3.80;99.90;;;;;;5013421;28;20196;-60
2021/04/24 04:50:12;;;;;;;9.90;4.93;;;3.90;99.90;;;;;;5013299;28;20653;-62
2021/04/24 04:52:38;;;;;;;9.87;4.90;;;3.90;99.90;;;;;;5013392;28;20184;-64
2021/04/24 04:55:06;;;;;;;16.93;5.80;;;4.10;99.90;;;;;;5013670;28;20174;-64
2021/04/24 04:57:32;;;;;;;10.23;4.73;;;4.10;99.90;;;;;;5013131;28;20192;-61
2021/04/24 04:59:57;;;;;;;6.53;4.83;;;4.20;99.90;;;;;;5012856;28;20290;-61
2021/04/24 05:02:23;;;;;;;6.93;4.90;;;4.30;99.90;;;;;;5013358;28;20181;-64
2021/04/24 05:04:49;;;;;;;7.93;4.83;;;4.40;99.90;;;;;;5013125;28;20208;-63
2021/04/24 05:07:15;;;;;;;8.47;4.47;;;4.50;99.90;;;;;;5013483;28;20195;-63
2021/04/24 05:09:41;;;;;;;8.37;4.57;;;4.60;99.90;;;;;;5013027;28;20546;-64
2021/04/24 05:12:08;;;;;;;9.27;4.40;;;4.70;99.90;;;;;;5012764;28;20274;-64
2021/04/24 05:14:34;;;;;;;9.23;4.90;;;4.80;99.90;;;;;;5013157;28;20207;-64
2021/04/24 05:17:00;;;;;;;6.10;4.53;;;4.90;99.90;;;;;;5012889;28;20692;-64
2021/04/24 05:19:26;;;;;;;11.30;4.90;;;4.90;99.90;;;;;;5013033;28;20184;-63
2021/04/24 05:21:52;;;;;;;8.23;4.60;;;5.00;99.90;;;;;;5012552;28;20187;-63
2021/04/24 05:24:17;;;;;;;10.20;4.87;;;5.00;99.90;;;;;;5012950;28;20338;-64
2021/04/24 05:26:43;;;;;;;7.77;4.67;;;5.10;99.90;;;;;;5012843;28;20208;-63
2021/04/24 05:29:09;;;;;;;8.50;5.00;;;5.10;99.90;;;;;;5012855;28;20204;-63
2021/04/24 05:31:35;;;;;;;10.13;4.90;;;5.20;99.90;;;;;;5012331;28;20191;-64
2021/04/24 05:34:00;;;;;;;7.10;4.60;;;5.20;99.90;;;;;;5012815;28;20176;-64
2021/04/24 05:36:26;;;;;;;9.00;5.20;;;5.30;99.90;;;;;;5012546;28;20172;-64
2021/04/24 05:38:53;;;;;;;8.87;4.37;;;5.50;99.90;;;;;;5012578;28;20208;-64
2021/04/24 05:41:22;;;;;;;11.37;4.77;;;5.50;99.90;;;;;;5012160;28;20183;-62
2021/04/24 05:43:54;;;;;;;9.10;5.03;;;5.60;99.90;;;;;;5012457;28;20942;-62
2021/04/24 05:46:21;;;;;;;8.37;4.83;;;5.70;99.90;;;;;;5012718;28;20238;-64
2021/04/24 05:48:48;;;;;;;10.67;4.80;;;5.80;99.90;;;;;;5012432;28;20224;-64
2021/04/24 05:51:15;;;;;;;6.13;4.40;;;5.80;99.90;;;;;;5012014;28;20179;-64
2021/04/24 05:53:41;;;;;;;8.93;4.77;;;5.90;99.90;;;;;;5012287;28;20253;-64
2021/04/24 05:56:06;;;;;;;9.03;5.20;;;6.20;99.90;;;;;;5013425;28;20638;-62
2021/04/24 05:58:32;;;;;;;7.83;4.10;;;6.40;99.90;;;;;;5013822;28;20214;-61
2021/04/24 06:00:58;;;;;;;8.07;4.33;;;6.70;99.90;;;;;;5011977;28;20194;-64
2021/04/24 06:03:24;;;;;;;13.83;5.00;;;7.00;99.90;;;;;;5012518;28;20669;-64
2021/04/24 06:05:49;;;;;;;9.13;4.77;;;7.40;99.90;;;;;;5012100;28;20181;-62
2021/04/24 06:08:15;;;;;;;8.07;4.43;;;7.90;99.90;;;;;;5011855;28;20196;-61
2021/04/24 06:10:41;;;;;;;8.13;4.87;;;8.30;99.90;;;;;;5012113;28;20168;-61
2021/04/24 06:13:07;;;;;;;6.80;4.30;;;8.60;99.90;;;;;;5011907;28;20664;-61
2021/04/24 06:15:32;;;;;;;7.63;4.60;;;8.80;99.90;;;;;;5012124;28;20295;-61
2021/04/24 06:17:58;;;;;;;9.73;4.20;;;9.00;99.90;;;;;;5010008;28;20239;-61
2021/04/24 06:20:24;;;;;;;10.70;4.50;;;9.00;99.90;;;;;;5011345;28;20175;-61
2021/04/24 06:22:49;;;;;;;8.10;5.40;;;9.00;99.90;;;;;;5011875;28;20693;-62
2021/04/24 06:25:17;;;;;;;7.67;4.90;;;8.90;99.90;;;;;;5011567;28;20204;-62
2021/04/24 06:27:44;;;;;;;11.70;4.70;;;8.80;99.90;;;;;;5011620;28;20200;-62
2021/04/24 06:30:12;;;;;;;8.73;4.90;;;8.80;99.90;;;;;;5011238;28;20237;-62
2021/04/24 06:32:38;;;;;;;8.53;5.30;;;8.70;99.90;;;;;;5011812;28;20669;-62
2021/04/24 06:35:05;;;;;;;8.77;4.40;;;8.70;99.90;;;;;;5011884;28;20184;-61
2021/04/24 06:37:31;;;;;;;7.30;4.73;;;8.80;99.90;;;;;;5011764;28;20196;-62
2021/04/24 06:39:57;;;;;;;10.70;4.80;;;8.70;99.90;;;;;;5010808;28;20187;-62
2021/04/24 06:42:23;;;;;;;9.40;4.30;;;8.80;99.90;;;;;;5011484;28;20184;-62
2021/04/24 06:44:49;;;;;;;9.90;4.60;;;8.90;99.90;;;;;;5011584;28;20239;-62
2021/04/24 06:47:15;;;;;;;9.00;5.00;;;9.10;99.90;;;;;;5011528;28;20265;-62
2021/04/24 06:49:40;;;;;;;10.20;4.33;;;9.10;99.90;;;;;;5011555;28;20179;-62
2021/04/24 06:52:06;;;;;;;7.57;5.23;;;9.10;99.90;;;;;;5011366;28;20173;-62
2021/04/24 06:54:33;;;;;;;8.83;4.70;;;9.00;99.90;;;;;;5011131;28;20179;-62
2021/04/24 06:56:59;;;;;;;9.17;5.07;;;9.00;99.90;;;;;;5011529;28;20200;-63
2021/04/24 06:59:24;;;;;;;9.27;4.50;;;9.10;99.90;;;;;;5011388;28;20586;-62
2021/04/24 07:01:50;;;;;;;9.80;4.97;;;9.10;99.90;;;;;;5011009;28;20183;-61
2021/04/24 07:04:16;;;;;;;10.00;4.37;;;9.30;99.90;;;;;;5014769;28;20253;-62
2021/04/24 07:06:41;;;;;;;7.67;4.47;;;9.40;99.90;;;;;;5015294;28;20203;-63
2021/04/24 07:09:07;;;;;;;6.83;4.37;;;9.70;99.90;;;;;;5015418;28;20246;-63
2021/04/24 07:11:33;;;;;;;7.67;4.70;;;10.00;99.90;;;;;;5014839;28;20183;-62
2021/04/24 07:13:59;;;;;;;10.77;5.07;;;10.30;99.90;;;;;;5015242;28;20653;-63
2021/04/24 07:16:24;;;;;;;11.73;4.97;;;10.60;99.90;;;;;;5015161;28;20203;-63
2021/04/24 07:18:50;;;;;;;7.27;4.93;;;10.90;99.90;;;;;;5015202;28;20776;-63
2021/04/24 07:21:15;;;;;;;6.73;4.00;;;11.30;99.90;;;;;;5014213;28;20180;-63
2021/04/24 07:23:41;;;;;;;5.93;4.23;;;11.70;99.90;;;;;;5015174;28;20549;-63
2021/04/24 07:26:10;;;;;;;7.23;4.30;;;12.00;99.90;;;;;;5015027;28;20574;-63
2021/04/24 07:28:36;;;;;;;7.70;4.70;;;12.60;99.90;;;;;;5014802;28;20250;-62
2021/04/24 07:31:03;;;;;;;10.93;4.60;;;12.60;99.90;;;;;;5014734;28;20267;-61
2021/04/24 07:33:28;;;;;;;7.97;4.40;;;12.70;99.90;;;;;;5014488;28;20180;-63
2021/04/24 07:35:54;;;;;;;5.97;3.97;;;12.80;99.90;;;;;;5015051;28;20179;-62
2021/04/24 07:38:21;;;;;;;7.93;4.00;;;12.90;99.90;;;;;;5014666;28;20580;-63
2021/04/24 07:40:47;;;;;;;6.70;3.63;;;13.00;99.90;;;;;;5014776;28;20208;-62
2021/04/24 07:43:14;;;;;;;7.63;4.13;;;13.10;99.90;;;;;;5014695;28;20183;-63
2021/04/24 07:45:40;;;;;;;9.27;3.63;;;13.10;99.90;;;;;;5014727;28;20633;-63
2021/04/24 07:48:06;;;;;;;5.17;3.43;;;13.40;99.90;;;;;;5014619;28;20660;-63
2021/04/24 07:50:33;;;;;;;6.57;3.97;;;13.40;99.90;;;;;;5013996;28;20637;-62
2021/04/24 07:52:59;;;;;;;7.33;4.00;;;13.50;99.90;;;;;;5014849;28;20173;-64
2021/04/24 07:55:26;;;;;;;5.70;3.80;;;13.80;99.90;;;;;;5014218;28;20176;-62
2021/04/24 07:57:52;;;;;;;6.30;3.90;;;14.00;99.90;;;;;;5014724;28;20200;-63
2021/04/24 08:00:18;;;;;;;7.57;4.03;;;13.90;99.90;;;;;;5013782;28;20743;-62
2021/04/24 08:02:43;;;;;;;3.80;2.77;;;13.50;99.90;;;;;;5014652;28;20661;-63
2021/04/24 08:05:09;;;;;;;6.10;2.90;;;13.60;99.90;;;;;;5014244;28;20242;-62
2021/04/24 08:07:35;;;;;;;3.63;2.70;;;13.60;99.90;;;;;;5014206;28;20196;-63
2021/04/24 08:10:01;;;;;;;6.33;2.97;;;13.70;99.90;;;;;;5013951;28;20183;-63
2021/04/24 08:12:26;;;;;;;5.87;3.27;;;14.10;99.90;;;;;;5014113;28;20580;-63
2021/04/24 08:14:55;;;;;;;3.83;2.70;;;14.20;99.90;;;;;;5013535;28;20188;-63
2021/04/24 08:17:20;;;;;;;6.47;3.60;;;14.20;99.90;;;;;;5013701;28;20286;-64
2021/04/24 08:19:46;;;;;;;4.53;3.17;;;14.60;99.90;;;;;;5014096;28;20275;-63
2021/04/24 08:22:11;;;;;;;5.60;2.80;;;14.70;99.90;;;;;;5013379;28;20665;-63
2021/04/24 08:24:37;;;;;;;3.47;2.30;;;14.80;99.90;;;;;;5013939;28;20212;-62
2021/04/24 08:27:03;;;;;;;5.40;3.07;;;14.80;99.90;;;;;;5013803;28;20176;-62
2021/04/24 08:29:29;;;;;;;6.07;2.83;;;14.60;99.90;;;;;;5013571;28;20215;-63
2021/04/24 08:31:54;;;;;;;5.13;2.80;;;14.30;99.90;;;;;;5013772;28;20591;-63
2021/04/24 08:34:24;;;;;;;5.07;3.17;;;14.30;99.90;;;;;;5013388;28;20281;-64
2021/04/24 08:36:50;;;;;;;7.07;3.50;;;14.10;99.90;;;;;;4994783;28;20188;-63
2021/04/24 08:39:16;;;;;;;8.90;3.73;;;14.20;99.90;;;;;;4994140;28;20181;-63
2021/04/24 08:41:42;;;;;;;5.63;3.70;;;14.00;99.90;;;;;;5013607;28;20184;-63
2021/04/24 08:44:08;;;;;;;7.13;4.07;;;13.70;99.90;;;;;;5013545;28;20665;-63
2021/04/24 08:46:34;;;;;;;6.57;4.57;;;13.70;99.90;;;;;;5013645;28;20191;-63
2021/04/24 08:49:00;;;;;;;5.30;4.17;;;14.00;99.90;;;;;;5013448;28;20736;-63
2021/04/24 08:51:28;;;;;;;6.50;4.23;;;14.20;99.90;;;;;;5013196;28;20195;-64
2021/04/24 08:53:56;;;;;;;8.87;4.10;;;14.70;99.90;;;;;;5013359;28;20187;-63
2021/04/24 08:56:24;;;;;;;6.00;4.60;;;15.20;99.90;;;;;;5013231;28;20561;-63
2021/04/24 08:58:53;;;;;;;9.50;4.63;;;15.30;99.90;;;;;;5013215;28;20563;-63
2021/04/24 09:01:20;;;;;;;6.13;4.33;;;15.30;99.90;;;;;;5012334;28;20550;-63
2021/04/24 09:03:46;;;;;;;7.43;4.50;;;15.50;99.90;;;;;;5013136;28;20730;-63
2021/04/24 09:06:11;;;;;;;5.67;4.40;;;15.60;99.90;;;;;;5013159;28;20172;-62
2021/04/24 09:08:37;;;;;;;7.07;4.30;;;15.10;99.90;;;;;;5012976;28;20231;-63
2021/04/24 09:11:05;;;;;;;7.80;5.00;;;14.80;99.90;;;;;;5011381;28;20638;-62
2021/04/24 09:13:32;;;;;;;7.47;4.50;;;14.80;99.90;;;;;;5013404;28;20172;-63
2021/04/24 09:15:58;;;;;;;9.10;4.97;;;14.50;99.90;;;;;;5012961;28;20191;-64
2021/04/24 09:18:29;;;;;;;9.63;4.70;;;14.50;99.90;;;;;;5012976;28;20230;-63
2021/04/24 09:21:00;;;;;;;7.33;4.73;;;14.70;99.90;;;;;;5012834;28;20243;-61
2021/04/24 09:23:30;;;;;;;4.60;4.20;;;14.40;99.90;;;;;;5012749;28;20314;-63
2021/04/24 09:26:00;;;;;;;9.97;5.03;;;14.30;99.90;;;;;;5012351;28;20175;-63
2021/04/24 09:28:28;;;;;;;7.93;4.30;;;14.90;99.90;;;;;;5012907;28;20203;-63
2021/04/24 09:30:54;;;;;;;6.33;4.80;;;15.30;99.90;;;;;;5012715;28;20728;-63
2021/04/24 09:33:20;;;;;;;8.47;4.53;;;15.70;99.90;;;;;;5011434;28;20172;-63
2021/04/24 09:35:53;;;;;;;7.27;4.33;;;16.20;99.90;;;;;;5012976;28;20183;-62
2021/04/24 09:38:22;;;;;;;6.20;4.30;;;16.50;99.90;;;;;;5012399;28;20196;-63
2021/04/24 09:41:06;;;;;;;4.90;4.30;;;16.30;99.90;;;;;;5012455;28;20168;-63
2021/04/24 09:44:03;;;;;;;7.60;4.33;;;16.40;99.90;;;;;;5012389;28;20211;-63
2021/04/24 09:46:48;;;;;;;5.73;4.07;;;16.20;99.90;;;;;;5012482;28;20176;-63
2021/04/24 09:49:18;;;;;;;6.53;3.87;;;16.40;99.90;;;;;;5011594;28;20275;-62
2021/04/24 09:51:47;;;;;;;6.37;4.13;;;16.70;99.90;;;;;;5001777;28;20175;-63
2021/04/24 09:54:14;;;;;;;4.27;3.87;;;17.00;99.90;;;;;;5012152;28;20182;-63
2021/04/24 09:56:41;;;;;;;6.40;3.80;;;17.20;99.90;;;;;;5012309;28;20195;-63
2021/04/24 09:59:09;;;;;;;6.57;4.43;;;17.60;99.90;;;;;;5012134;28;20709;-63
2021/04/24 10:01:38;;;;;;;7.93;4.75;;;17.40;99.90;;;;;;5011790;28;20613;-63
2021/04/24 10:04:09;;;;;;;5.43;3.90;;;17.10;99.90;;;;;;5011671;28;20203;-63
2021/04/24 10:06:42;;;;;;;7.20;4.67;;;17.20;99.90;;;;;;5012008;28;20257;-63
2021/04/24 10:09:30;;;;;;;6.60;4.20;;;17.30;99.90;;;;;;5012061;28;20595;-63
2021/04/24 10:12:09;;;;;;;8.87;4.43;;;17.30;99.90;;;;;;5010121;28;20191;-63
2021/04/24 10:14:40;;;;;;;6.40;4.40;;;17.30;99.90;;;;;;5011904;28;20194;-63
2021/04/24 10:17:12;;;;;;;6.43;4.50;;;16.90;99.90;;;;;;5011955;28;20188;-63
2021/04/24 10:19:38;;;;;;;6.47;4.83;;;16.60;99.90;;;;;;5011664;28;20180;-63
2021/04/24 10:22:07;;;;;;;5.40;3.80;;;16.80;99.90;;;;;;4992094;28;20169;-63
2021/04/24 10:24:33;;;;;;;6.20;4.27;;;17.20;99.90;;;;;;4996055;28;20608;-63
2021/04/24 10:27:00;;;;;;;6.13;4.07;;;17.10;99.90;;;;;;5011666;28;20176;-63
2021/04/24 10:29:26;;;;;;;8.27;5.23;;;17.30;99.90;;;;;;5011630;28;20493;-63
2021/04/24 10:31:53;;;;;;;5.70;4.50;;;17.20;99.90;;;;;;5011991;28;20311;-63
2021/04/24 10:34:19;;;;;;;9.97;4.17;;;17.20;99.90;;;;;;5011356;28;20176;-63
2021/04/24 10:36:45;;;;;;;5.67;4.07;;;17.00;99.90;;;;;;5011682;28;20207;-63
2021/04/24 10:39:29;;;;;;;6.17;4.10;;;16.50;99.90;;;;;;5011667;28;20319;-62
2021/04/24 10:41:54;;;;;;;6.20;4.17;;;16.20;99.90;;;;;;4991551;28;20181;-64
2021/04/24 10:44:22;;;;;;;4.73;3.83;;;16.10;99.90;;;;;;5008942;28;20943;-63
2021/04/24 10:46:55;;;;;;;6.17;4.20;;;16.30;99.90;;;;;;5010694;28;20172;-64
2021/04/24 10:49:24;;;;;;;6.63;4.50;;;16.40;99.90;;;;;;5011467;28;20701;-63
2021/04/24 10:52:18;;;;;;;5.97;4.10;;;16.60;99.90;;;;;;5011497;28;20176;-64
2021/04/24 10:55:16;;;;;;;6.83;3.80;;;16.60;99.90;;;;;;4991714;28;20181;-64
2021/04/24 10:57:50;;;;;;;6.43;4.53;;;16.80;99.90;;;;;;4995623;28;20227;-64
2021/04/24 11:00:23;;;;;;;9.20;4.50;;;16.60;99.90;;;;;;5011254;28;20195;-63
2021/04/24 11:02:56;;;;;;;5.37;4.73;;;16.40;99.90;;;;;;5011182;28;20673;-64
2021/04/24 11:05:41;;;;;;;7.60;3.80;;;16.80;99.90;;;;;;5012050;28;20211;-64
2021/04/24 11:08:06;;;;;;;5.70;3.77;;;17.40;99.90;;;;;;5011395;28;20196;-64
2021/04/24 11:10:32;;;;;;;5.20;4.03;;;17.40;99.90;;;;;;5011159;28;20202;-64
2021/04/24 11:13:00;;;;;;;7.47;3.93;;;18.00;99.90;;;;;;5011330;28;20539;-64
2021/04/24 11:15:26;;;;;;;5.97;3.77;;;18.50;99.90;;;;;;5011240;28;20511;-63
2021/04/24 11:17:54;;;;;;;5.10;3.90;;;18.50;99.90;;;;;;5011429;28;20285;-63
2021/04/24 11:20:44;;;;;;;5.83;4.10;;;18.50;99.50;;;;;;5010900;28;20168;-63
2021/04/24 11:23:32;;;;;;;7.77;4.70;;;18.20;99.90;;;;;;5010807;28;20196;-63
2021/04/24 11:26:05;;;;;;;7.60;4.53;;;18.30;99.90;;;;;;4991744;28;20211;-63
2021/04/24 11:28:31;;;;;;;7.03;4.70;;;18.50;99.80;;;;;;5005216;28;20681;-63
2021/04/24 11:30:59;;;;;;;6.77;4.07;;;18.40;99.90;;;;;;5011194;28;20180;-63
2021/04/24 11:33:43;;;;;;;7.17;4.50;;;18.20;99.90;;;;;;5011110;28;20176;-63
2021/04/24 11:36:16;;;;;;;6.03;4.23;;;18.00;97.90;;;;;;5011223;28;20234;-63
2021/04/24 11:38:54;;;;;;;7.43;4.50;;;17.70;96.80;;;;;;5010606;28;20208;-62
2021/04/24 11:41:40;;;;;;;5.90;4.43;;;17.20;98.00;;;;;;5010932;28;20176;-62
2021/04/24 11:44:18;;;;;;;6.63;4.20;;;17.00;97.10;;;;;;4991614;28;20316;-63
2021/04/24 11:47:02;;;;;;;6.87;4.53;;;16.90;97.70;;;;;;4993404;28;20177;-63
2021/04/24 11:49:28;;;;;;;6.63;4.47;;;16.60;99.40;;;;;;5011736;28;20175;-63
2021/04/24 11:51:59;;;;;;;5.33;4.17;;;16.80;99.20;;;;;;5014369;28;20188;-63
2021/04/24 11:54:41;;;;;;;7.13;4.57;;;17.20;98.40;;;;;;5013680;28;20212;-63
2021/04/24 11:57:13;;;;;;;8.10;4.53;;;17.30;99.90;;;;;;5014590;28;20611;-63
2021/04/24 11:59:41;;;;;;;5.23;3.97;;;17.50;99.20;;;;;;5014650;28;20195;-63
2021/04/24 12:02:15;;;;;;;7.00;4.73;;;17.50;98.70;;;;;;5014346;28;20179;-63
2021/04/24 12:04:42;;;;;;;12.97;4.57;;;17.70;98.90;;;;;;4994978;28;20769;-64
2021/04/24 12:07:14;;;;;;;8.80;4.87;;;18.40;99.40;;;;;;4994984;28;20172;-63
2021/04/24 12:09:46;;;;;;;5.47;4.30;;;18.90;97.00;;;;;;5013049;28;20242;-63
2021/04/24 12:12:14;;;;;;;6.25;4.43;;;19.20;95.60;;;;;;5014277;28;20629;-65
2021/04/24 12:14:40;;;;;;;6.50;4.55;;;19.40;96.90;;;;;;5014119;28;20788;-64
2021/04/24 12:17:11;;;;;;;5.60;4.80;;;19.60;97.80;;;;;;5014225;28;20255;-64
2021/04/24 12:19:39;;;;;;;5.05;4.20;;;20.10;96.80;;;;;;5014093;28;20188;-64
2021/04/24 12:22:13;;;;;;;7.18;4.63;;;20.20;98.10;;;;;;5013981;28;20172;-64
2021/04/24 12:24:59;;;;;;;7.03;4.65;;;20.20;94.70;;;;;;5014338;28;20199;-63
2021/04/24 12:27:27;;;;;;;5.57;4.53;;;20.50;99.90;;;;;;5013734;28;20246;-64
2021/04/24 12:29:53;;;;;;;4.40;3.90;;;20.60;95.80;;;;;;5013976;28;20164;-64
2021/04/24 12:32:22;;;;;;;4.55;4.00;;;20.30;95.30;;;;;;5013594;28;20176;-64
2021/04/24 12:34:48;;;;;;;5.43;4.45;;;19.70;95.20;;;;;;5014125;28;20191;-63
2021/04/24 12:37:18;;;;;;;6.45;4.45;;;19.60;95.60;;;;;;5013705;28;20208;-64
2021/04/24 12:39:44;;;;;;;6.27;4.47;;;19.20;94.00;;;;;;5013829;28;20179;-63
2021/04/24 12:42:11;;;;;;;6.07;4.13;;;18.50;93.60;;;;;;5013593;28;20613;-63
2021/04/24 12:44:38;;;;;;;5.93;4.37;;;18.10;93.90;;;;;;5013423;28;20250;-63
2021/04/24 12:47:05;;;;;;;7.37;4.03;;;18.10;94.90;;;;;;5013745;28;20657;-64
2021/04/24 12:49:31;;;;;;;5.40;4.23;;;18.50;94.30;;;;;;5013493;28;20180;-64
2021/04/24 12:52:01;;;;;;;5.77;4.30;;;18.50;93.20;;;;;;5013243;28;20667;-64
2021/04/24 12:54:27;;;;;;;5.30;4.00;;;18.70;93.30;;;;;;5012708;28;20621;-63